createdAt,value
2023-04-03T05:09:42.741Z,102226.25
2023-04-03T05:12:57.305Z,102231.16
2023-04-03T05:16:36.479Z,102226.28
2023-04-03T05:28:31.875Z,102248.47
2023-04-03T05:31:34.503Z,102244.34
2023-04-03T05:34:36.993Z,102246.41
2023-04-03T05:37:39.782Z,102263.16
2023-04-03T05:40:42.524Z,102259.13
2023-04-03T05:43:46.314Z,102269.94
2023-04-03T05:46:48.935Z,102266.81
2023-04-03T05:49:51.425Z,102269.38
2023-04-03T05:52:57.248Z,102276.50
2023-04-03T05:55:59.822Z,102264.34
2023-04-03T05:59:03.594Z,102264.53
2023-04-03T06:02:06.158Z,102265.00
2023-04-03T06:05:09.636Z,102266.56
2023-04-03T06:08:12.191Z,102271.25
2023-04-03T06:11:14.686Z,102272.16
2023-04-03T06:14:18.489Z,102271.78
2023-04-03T06:17:21.442Z,102292.44
2023-04-03T06:20:24.164Z,102290.09
2023-04-03T06:23:27.417Z,102290.28
2023-04-03T06:26:30.149Z,102302.13
2023-04-03T06:29:33.941Z,102304.69
2023-04-03T06:32:36.451Z,102311.72
2023-04-03T06:35:39.554Z,102314.22
2023-04-03T06:38:42.000Z,102306.25
2023-04-03T06:41:44.861Z,102308.97
2023-04-03T06:44:48.745Z,102321.16
2023-04-03T06:47:51.273Z,102317.66
2023-04-03T06:50:55.179Z,102317.53
2023-04-03T06:54:00.050Z,102327.19
2023-04-03T06:57:02.812Z,102324.91
2023-04-03T07:00:10.149Z,102329.22
2023-04-03T07:03:12.626Z,102329.94
2023-04-03T07:06:16.972Z,102327.69
2023-04-03T07:09:19.466Z,102335.63
2023-04-03T07:12:21.957Z,102345.13
2023-04-03T07:15:25.806Z,102344.09
2023-04-03T07:18:28.694Z,102346.03
2023-04-03T07:21:31.773Z,102351.31
2023-04-03T07:24:34.376Z,102345.00
2023-04-03T07:27:36.925Z,102348.97
2023-04-03T07:30:46.221Z,102339.97
2023-04-03T07:33:48.687Z,102346.06
2023-04-03T07:36:51.142Z,102352.31
2023-04-03T07:39:53.805Z,102354.97
2023-04-03T07:42:57.492Z,102347.94
2023-04-03T07:46:01.568Z,102369.94
2023-04-03T07:49:04.489Z,102362.69
2023-04-03T07:52:08.162Z,102370.25
2023-04-03T07:55:11.223Z,102370.28
2023-04-03T07:58:15.491Z,102358.72
2023-04-03T08:01:19.307Z,102369.84
2023-04-03T08:04:21.866Z,102364.47
2023-04-03T08:07:24.445Z,102368.78
2023-04-03T08:10:26.927Z,102384.78
2023-04-03T08:13:29.473Z,102376.09
2023-04-03T08:16:33.306Z,102373.47
2023-04-03T08:19:36.203Z,102360.25
2023-04-03T08:22:38.684Z,102362.53
2023-04-03T08:25:42.328Z,102363.00
2023-04-03T08:28:44.879Z,102362.81
2023-04-03T08:31:50.800Z,102370.84
2023-04-03T08:34:53.419Z,102364.84
2023-04-03T08:37:56.067Z,102378.41
2023-04-03T08:41:04.224Z,102385.69
2023-04-03T08:44:17.483Z,102356.72
2023-04-03T08:47:27.079Z,102348.75
2023-04-03T08:50:36.287Z,102351.88
2023-04-03T08:53:42.369Z,102352.13
2023-04-03T08:56:44.928Z,102362.94
2023-04-03T08:59:48.141Z,102355.13
2023-04-03T09:02:53.983Z,102353.94
2023-04-03T09:06:01.980Z,102349.53
2023-04-03T09:09:15.503Z,102353.19
2023-04-03T09:12:24.850Z,102348.78
2023-04-03T09:15:37.717Z,102339.09
2023-04-03T09:18:50.743Z,102361.25
2023-04-03T09:21:53.242Z,102346.38
2023-04-03T09:25:01.775Z,102348.91
2023-04-03T09:28:10.725Z,102348.00
2023-04-03T09:31:21.992Z,102344.47
2023-04-03T09:34:29.609Z,102359.41
2023-04-03T09:37:39.763Z,102343.69
2023-04-03T09:40:45.460Z,102356.00
2023-04-03T09:43:54.884Z,102358.63
2023-04-03T09:46:57.462Z,102351.53
2023-04-03T09:50:21.398Z,102342.66
2023-04-03T09:53:29.501Z,102344.34
2023-04-03T09:56:32.746Z,102333.84
2023-04-03T09:59:35.564Z,102338.25
2023-04-03T10:02:40.105Z,102340.97
2023-04-03T10:05:44.113Z,102332.97
2023-04-03T10:09:00.866Z,102335.59
2023-04-03T10:12:06.692Z,102326.09
2023-04-03T10:15:14.910Z,102328.66
2023-04-03T10:18:31.466Z,102328.56
2023-04-03T10:21:43.880Z,102323.34
2023-04-03T10:24:54.036Z,102322.44
2023-04-03T10:28:01.872Z,102325.94
2023-04-03T10:31:16.618Z,102327.72
2023-04-03T10:34:25.240Z,102332.97
2023-04-03T10:37:38.402Z,102326.81
2023-04-03T10:40:48.755Z,102319.88
2023-04-03T10:44:04.109Z,102325.97
2023-04-03T10:47:14.834Z,102323.38
2023-04-03T10:50:41.819Z,102326.84
2023-04-03T10:53:52.007Z,102312.91
2023-04-03T10:57:08.574Z,102316.34
2023-04-03T11:00:20.292Z,102315.41
2023-04-03T11:03:33.076Z,102310.22
2023-04-03T11:06:40.421Z,102306.84
2023-04-03T11:09:48.961Z,102303.31
2023-04-03T11:12:54.499Z,102309.56
2023-04-03T11:15:59.508Z,102301.75
2023-04-03T11:22:18.773Z,102294.03
2023-04-03T11:25:25.450Z,102298.38
2023-04-03T11:28:27.929Z,102288.78
2023-04-03T11:31:47.163Z,102278.31
2023-04-03T11:34:54.995Z,102282.66
2023-04-03T11:37:59.412Z,102274.81
2023-04-03T11:41:04.819Z,102273.84
2023-04-03T11:44:27.398Z,102280.81
2023-04-03T11:47:47.163Z,102275.50
2023-04-03T11:50:51.451Z,102268.53
2023-04-03T11:53:54.541Z,102281.66
2023-04-03T11:56:58.562Z,102267.63
2023-04-03T12:00:01.081Z,102268.38
2023-04-03T12:03:03.699Z,102276.19
2023-04-03T12:06:45.513Z,102271.00
2023-04-03T12:10:01.537Z,102278.13
2023-04-03T12:13:18.500Z,102268.47
2023-04-03T12:16:23.363Z,102275.47
2023-04-03T12:23:09.712Z,102260.56
2023-04-03T12:26:28.305Z,102272.75
2023-04-03T12:29:43.884Z,102272.75
2023-04-03T12:33:13.900Z,102263.19
2023-04-03T12:36:25.847Z,102257.94
2023-04-03T12:39:46.648Z,102257.16
2023-04-03T12:43:05.367Z,102250.25
2023-04-03T12:46:17.026Z,102257.28
2023-04-03T12:49:34.975Z,102254.72
2023-04-03T12:52:41.785Z,102258.22
2023-04-03T12:55:44.282Z,102254.75
2023-04-03T12:58:46.820Z,102266.97
2023-04-03T13:01:57.850Z,102251.22
2023-04-03T13:05:06.270Z,102259.13
2023-04-03T13:08:16.769Z,102253.00
2023-04-03T13:11:22.915Z,102254.69
2023-04-03T13:14:27.180Z,102250.94
2023-04-03T13:17:31.061Z,102256.06
2023-04-03T13:20:36.901Z,102243.34
2023-04-03T13:23:44.679Z,102238.19
2023-04-03T13:26:47.334Z,102242.50
2023-04-03T13:29:52.837Z,102231.94
2023-04-03T13:32:58.720Z,102235.41
2023-04-03T13:36:05.315Z,102231.94
2023-04-03T13:39:22.403Z,102226.69
2023-04-03T13:42:27.655Z,102230.13
2023-04-03T13:45:32.015Z,102223.13
2023-04-03T13:48:43.931Z,102225.75
2023-04-03T13:51:47.806Z,102219.69
2023-04-03T13:54:56.590Z,102224.09
2023-04-03T13:58:02.162Z,102215.47
2023-04-03T14:01:12.644Z,102229.38
2023-04-03T14:04:20.219Z,102218.06
2023-04-03T14:07:23.248Z,102225.94
2023-04-03T14:10:25.767Z,102208.47
2023-04-03T14:13:28.285Z,102220.72
2023-04-03T14:16:34.479Z,102207.59
2023-04-03T14:19:38.296Z,102215.44
2023-04-03T14:22:40.997Z,102208.41
2023-04-03T14:25:44.768Z,102205.78
2023-04-03T14:28:48.484Z,102211.78
2023-04-03T14:31:57.700Z,102208.22
2023-04-03T14:35:05.602Z,102200.34
2023-04-03T14:38:21.154Z,102201.28
2023-04-03T14:41:25.890Z,102205.59
2023-04-03T14:44:28.512Z,102193.41
2023-04-03T14:47:32.727Z,102205.69
2023-04-03T14:50:37.046Z,102192.63
2023-04-03T14:53:40.028Z,102197.03
2023-04-03T14:56:42.961Z,102203.09
2023-04-03T14:59:45.998Z,102190.91
2023-04-03T15:02:49.579Z,102192.66
2023-04-03T15:05:53.599Z,102191.78
2023-04-03T15:08:56.766Z,102187.47
2023-04-03T15:11:59.495Z,102192.72
2023-04-03T15:15:03.585Z,102204.06
2023-04-03T15:18:07.335Z,102193.63
2023-04-03T15:21:11.808Z,102195.41
2023-04-03T15:24:14.305Z,102194.53
2023-04-03T15:27:17.280Z,102194.53
2023-04-03T15:30:22.414Z,102187.50
2023-04-03T15:33:25.105Z,102193.56
2023-04-03T15:36:33.965Z,102190.88
2023-04-03T15:39:37.337Z,102180.34
2023-04-03T15:42:40.457Z,102177.69
2023-04-03T15:45:43.712Z,102181.19
2023-04-03T15:48:46.685Z,102179.41
2023-04-03T15:51:50.637Z,102168.97
2023-04-03T15:54:53.273Z,102181.19
2023-04-03T15:57:56.168Z,102176.84
2023-04-03T16:00:58.716Z,102184.66
2023-04-03T16:04:01.439Z,102182.03
2023-04-03T16:07:06.466Z,102175.09
2023-04-03T16:10:10.700Z,102177.75
2023-04-03T16:13:13.372Z,102179.47
2023-04-03T16:16:16.047Z,102176.00
2023-04-03T16:19:18.721Z,102174.25
2023-04-03T16:22:23.234Z,102175.94
2023-04-03T16:25:26.028Z,102182.91
2023-04-03T16:28:28.956Z,102182.06
2023-04-03T16:31:34.866Z,102196.84
2023-04-03T16:34:37.867Z,102189.78
2023-04-03T16:37:42.245Z,102195.81
2023-04-03T16:40:44.811Z,102194.81
2023-04-03T16:43:47.312Z,102186.06
2023-04-03T16:46:50.587Z,102192.09
2023-04-03T16:49:53.362Z,102192.97
2023-04-03T16:52:57.312Z,102191.25
2023-04-03T16:56:00.491Z,102188.59
2023-04-03T16:59:03.038Z,102190.34
2023-04-03T17:02:05.573Z,102179.03
2023-04-03T17:05:08.906Z,102175.53
2023-04-03T17:08:14.777Z,102174.59
2023-04-03T17:11:17.832Z,102175.44
2023-04-03T17:14:20.438Z,102187.59
2023-04-03T17:17:25.964Z,102181.50
2023-04-03T17:20:28.665Z,102186.69
2023-04-03T17:23:34.785Z,102179.72
2023-04-03T17:26:38.326Z,102185.81
2023-04-03T17:29:41.064Z,102194.44
2023-04-03T17:32:43.582Z,102193.59
2023-04-03T17:35:46.073Z,102190.16
2023-04-03T17:38:51.630Z,102190.97
2023-04-03T17:41:55.031Z,102190.09
2023-04-03T17:44:57.696Z,102196.19
2023-04-03T17:48:00.251Z,102195.31
2023-04-03T17:51:05.079Z,102193.56
2023-04-03T17:54:09.017Z,102196.19
2023-04-03T17:57:11.464Z,102195.31
2023-04-03T18:00:16.337Z,102198.78
2023-04-03T18:03:18.807Z,102195.25
2023-04-03T18:06:25.371Z,102194.34
2023-04-03T18:09:33.182Z,102192.53
2023-04-03T18:12:37.431Z,102188.97
2023-04-03T18:15:45.527Z,102185.47
2023-04-03T18:18:50.674Z,102188.03
2023-04-03T18:21:58.937Z,102190.56
2023-04-03T18:25:02.988Z,102193.88
2023-04-03T18:28:06.708Z,102191.22
2023-04-03T18:31:10.821Z,102194.53
2023-04-03T18:34:13.333Z,102191.78
2023-04-03T18:37:16.471Z,102189.13
2023-04-03T18:40:20.510Z,102189.81
2023-04-03T18:43:23.296Z,102188.72
2023-04-03T18:46:26.079Z,102188.72
2023-04-03T18:49:30.807Z,102192.13
2023-04-03T18:52:33.444Z,102191.38
2023-04-03T18:55:37.398Z,102192.00
2023-04-03T18:58:39.886Z,102184.06
2023-04-03T19:01:42.464Z,102193.53
2023-04-03T19:04:46.427Z,102190.81
2023-04-03T19:07:50.666Z,102195.84
2023-04-03T19:10:54.552Z,102194.19
2023-04-03T19:14:04.603Z,102189.78
2023-04-03T19:17:16.673Z,102192.00
2023-04-03T19:20:21.053Z,102191.03
2023-04-03T19:23:24.100Z,102190.16
2023-04-03T19:26:28.011Z,102191.03
2023-04-03T19:29:30.498Z,102184.88
2023-04-03T19:32:33.004Z,102187.56
2023-04-03T19:35:35.520Z,102187.47
2023-04-03T19:38:38.644Z,102188.88
2023-04-03T19:41:45.569Z,102181.91
